Time;durP1;ratioP1;P1;durP2;ratioP2;P2;SDS_P1;SDS_P2;PMS_P1;PMS_P2;Temp;Humidity;BMP_temperature;BMP_pressure;BME280_temperature;BME280_humidity;BME280_pressure;Samples;Min_cycle;Max_cycle;Signal;HPM_P1;HPM_P2
2021/07/06 00:00:23;;;;;;;1.75;1.63;;;17.20;99.90;;;;;;4937785;29;20692;-49
2021/07/06 00:02:51;;;;;;;1.95;1.80;;;17.10;99.90;;;;;;4937178;29;20251;-47
2021/07/06 00:05:21;;;;;;;1.63;1.48;;;17.10;99.90;;;;;;4937123;29;20218;-50
2021/07/06 00:07:50;;;;;;;3.20;2.00;;;17.00;99.90;;;;;;4937177;29;20271;-48
2021/07/06 00:10:20;;;;;;;1.95;1.85;;;17.00;99.90;;;;;;4936900;29;20243;-47
2021/07/06 00:12:48;;;;;;;2.40;2.20;;;17.00;99.90;;;;;;4936792;29;20759;-49
2021/07/06 00:15:19;;;;;;;3.35;2.03;;;16.90;99.90;;;;;;4937081;29;20625;-49
2021/07/06 00:17:47;;;;;;;2.00;1.83;;;16.90;99.90;;;;;;4936670;29;20782;-46
2021/07/06 00:20:16;;;;;;;3.13;2.35;;;16.90;99.90;;;;;;4936937;29;20212;-51
2021/07/06 00:22:45;;;;;;;2.92;2.40;;;16.80;99.90;;;;;;4936726;29;20307;-47
2021/07/06 00:25:14;;;;;;;4.53;2.08;;;16.80;99.90;;;;;;4936635;29;20321;-50
2021/07/06 00:27:42;;;;;;;3.17;2.25;;;16.80;99.90;;;;;;4936915;29;20296;-46
2021/07/06 00:30:12;;;;;;;1.90;1.80;;;16.80;99.90;;;;;;4936750;29;20230;-49
2021/07/06 00:32:40;;;;;;;4.03;2.40;;;16.80;99.90;;;;;;4936561;29;20300;-49
2021/07/06 00:35:09;;;;;;;4.25;2.35;;;16.80;99.90;;;;;;4936484;29;20271;-50
2021/07/06 00:37:37;;;;;;;2.85;2.45;;;16.80;99.90;;;;;;4936361;29;20243;-49
2021/07/06 00:40:09;;;;;;;2.30;2.08;;;16.80;99.90;;;;;;4936459;29;20236;-47
2021/07/06 00:42:41;;;;;;;3.88;2.42;;;16.80;99.90;;;;;;4936397;29;20213;-45
2021/07/06 00:45:11;;;;;;;3.45;2.10;;;16.80;99.90;;;;;;4936172;29;20315;-48
2021/07/06 00:47:40;;;;;;;2.10;1.90;;;16.80;99.90;;;;;;4936243;29;20236;-47
2021/07/06 00:50:13;;;;;;;3.75;2.10;;;16.80;99.90;;;;;;4936202;29;20283;-48
2021/07/06 00:52:41;;;;;;;2.22;2.00;;;16.80;99.90;;;;;;4936282;29;20216;-47
2021/07/06 00:55:12;;;;;;;2.75;2.33;;;16.80;99.90;;;;;;4936168;29;20294;-51
2021/07/06 00:57:41;;;;;;;3.55;2.53;;;16.80;99.90;;;;;;4936263;29;20303;-53
2021/07/06 01:00:12;;;;;;;2.13;1.98;;;16.80;99.90;;;;;;4936141;29;20216;-47
2021/07/06 01:02:41;;;;;;;2.17;1.98;;;16.80;99.90;;;;;;4935077;29;20299;-46
2021/07/06 01:05:12;;;;;;;2.17;1.98;;;16.70;99.90;;;;;;4935954;29;20208;-47
2021/07/06 01:07:40;;;;;;;3.67;2.00;;;16.70;99.90;;;;;;4935930;29;20303;-51
2021/07/06 01:10:11;;;;;;;2.72;1.85;;;16.70;99.90;;;;;;4938214;29;20212;-50
2021/07/06 01:12:39;;;;;;;2.22;2.03;;;16.70;99.90;;;;;;4935776;29;20243;-48
2021/07/06 01:15:10;;;;;;;3.65;1.88;;;16.60;99.90;;;;;;4935709;29;20233;-46
2021/07/06 01:17:39;;;;;;;2.58;2.38;;;16.60;99.90;;;;;;4935927;29;20295;-46
2021/07/06 01:20:09;;;;;;;5.68;2.72;;;16.60;99.90;;;;;;4935588;29;20261;-47
2021/07/06 01:22:38;;;;;;;2.58;2.10;;;16.60;99.90;;;;;;4935922;29;20310;-46
2021/07/06 01:25:09;;;;;;;2.33;2.13;;;16.50;99.90;;;;;;4935781;29;20619;-46
2021/07/06 01:27:38;;;;;;;2.40;2.20;;;16.50;99.90;;;;;;4935449;29;20223;-49
2021/07/06 01:30:10;;;;;;;1.90;1.73;;;16.50;99.90;;;;;;4935370;29;20219;-51
2021/07/06 01:32:40;;;;;;;2.17;1.90;;;16.50;99.90;;;;;;4935605;29;20240;-47
2021/07/06 01:35:09;;;;;;;3.38;1.77;;;16.50;99.90;;;;;;4935407;29;20231;-48
2021/07/06 01:37:43;;;;;;;4.88;1.92;;;16.50;99.90;;;;;;4935518;29;20316;-50
2021/07/06 01:40:13;;;;;;;2.60;2.03;;;16.50;99.90;;;;;;4935399;29;20599;-49
2021/07/06 01:42:41;;;;;;;1.80;1.70;;;16.40;99.90;;;;;;4935250;29;20215;-48
2021/07/06 01:45:11;;;;;;;2.53;2.33;;;16.40;99.90;;;;;;4935500;29;20211;-49
2021/07/06 01:47:40;;;;;;;2.85;1.80;;;16.40;99.90;;;;;;4935333;29;20246;-50
2021/07/06 01:50:11;;;;;;;2.63;1.90;;;16.30;99.90;;;;;;4935234;29;20690;-46
2021/07/06 01:52:45;;;;;;;2.85;1.90;;;16.30;99.90;;;;;;4935219;29;20226;-47
2021/07/06 01:55:15;;;;;;;2.05;1.85;;;16.30;99.90;;;;;;4935364;29;20259;-50
2021/07/06 01:57:44;;;;;;;1.77;1.67;;;16.30;99.90;;;;;;4935230;29;20222;-50
2021/07/06 02:00:16;;;;;;;5.10;2.13;;;16.30;99.90;;;;;;4935109;29;20578;-46
2021/07/06 02:02:44;;;;;;;4.55;1.77;;;16.30;99.90;;;;;;4934998;29;20759;-48
2021/07/06 02:05:27;;;;;;;2.13;1.85;;;16.30;99.90;;;;;;4935057;29;20215;-47
2021/07/06 02:07:57;;;;;;;4.03;2.08;;;16.40;99.90;;;;;;4935242;29;20311;-50
2021/07/06 02:10:26;;;;;;;2.53;1.90;;;16.30;99.90;;;;;;4934927;29;20312;-47
2021/07/06 02:12:54;;;;;;;2.10;1.90;;;16.30;99.90;;;;;;4935102;29;20298;-51
2021/07/06 02:15:23;;;;;;;2.00;1.80;;;16.30;99.90;;;;;;4934868;29;20228;-51
2021/07/06 02:17:52;;;;;;;4.10;1.90;;;16.20;99.90;;;;;;4934768;29;20606;-48
2021/07/06 02:20:21;;;;;;;2.28;2.08;;;16.20;99.90;;;;;;4934888;29;20311;-48
2021/07/06 02:22:50;;;;;;;2.47;2.05;;;16.20;99.90;;;;;;4935047;29;20212;-50
2021/07/06 02:25:21;;;;;;;3.85;2.05;;;16.20;99.90;;;;;;4934894;29;20216;-47
2021/07/06 02:27:50;;;;;;;1.92;1.67;;;16.20;99.90;;;;;;4934578;29;20767;-48
2021/07/06 02:30:21;;;;;;;2.33;2.13;;;16.10;99.90;;;;;;4934697;29;20307;-49
2021/07/06 02:32:50;;;;;;;2.63;1.80;;;16.10;99.90;;;;;;4934658;29;20236;-48
2021/07/06 02:35:18;;;;;;;2.67;2.05;;;16.10;99.90;;;;;;4934768;29;20326;-48
2021/07/06 02:37:48;;;;;;;2.97;1.98;;;16.10;99.90;;;;;;4934830;29;20368;-51
2021/07/06 02:40:19;;;;;;;5.03;2.33;;;16.10;99.90;;;;;;4934592;29;20212;-46
2021/07/06 02:42:47;;;;;;;2.70;2.25;;;16.10;99.90;;;;;;4934628;29;20223;-46
2021/07/06 02:45:16;;;;;;;2.75;2.28;;;16.10;99.90;;;;;;4934748;29;20299;-49
2021/07/06 02:47:45;;;;;;;2.40;2.20;;;16.10;99.90;;;;;;4934692;29;20246;-44
2021/07/06 02:50:15;;;;;;;3.70;2.03;;;16.10;99.90;;;;;;4934728;29;20271;-47
2021/07/06 02:52:43;;;;;;;2.15;1.95;;;16.00;99.90;;;;;;4934568;29;20775;-49
2021/07/06 02:55:12;;;;;;;4.03;2.63;;;16.00;99.90;;;;;;4934893;29;20228;-51
2021/07/06 02:57:42;;;;;;;5.30;2.28;;;16.00;99.90;;;;;;4934803;29;20218;-47
2021/07/06 03:00:15;;;;;;;2.17;1.70;;;16.00;99.90;;;;;;4934649;29;20216;-51
2021/07/06 03:02:46;;;;;;;6.40;4.18;;;16.00;99.90;;;;;;4934465;29;20216;-49
2021/07/06 03:05:15;;;;;;;2.92;1.75;;;16.00;99.90;;;;;;4934670;29;20216;-51
2021/07/06 03:07:44;;;;;;;4.10;2.17;;;15.90;99.90;;;;;;4934350;29;20637;-49
2021/07/06 03:10:15;;;;;;;2.65;2.38;;;15.90;99.90;;;;;;4934650;29;20208;-46
2021/07/06 03:12:45;;;;;;;4.10;2.72;;;15.90;99.90;;;;;;4934632;29;20640;-48
2021/07/06 03:15:15;;;;;;;2.97;2.28;;;15.80;99.90;;;;;;4934616;29;20224;-47
2021/07/06 03:17:44;;;;;;;4.40;2.20;;;15.80;99.90;;;;;;4934348;29;20672;-47
2021/07/06 03:20:16;;;;;;;3.83;2.10;;;15.80;99.90;;;;;;4934286;29;20301;-46
2021/07/06 03:22:44;;;;;;;4.05;2.22;;;15.80;99.90;;;;;;4934554;29;20511;-50
2021/07/06 03:25:15;;;;;;;4.05;2.03;;;15.80;99.90;;;;;;4934573;29;20204;-49
2021/07/06 03:27:44;;;;;;;4.35;2.13;;;15.80;99.90;;;;;;4937147;29;20222;-50
2021/07/06 03:30:15;;;;;;;5.25;2.42;;;15.80;99.90;;;;;;4937631;29;20676;-48
2021/07/06 03:32:43;;;;;;;2.65;2.05;;;15.80;99.90;;;;;;4937961;29;20621;-47
2021/07/06 03:35:12;;;;;;;3.28;2.20;;;15.80;99.90;;;;;;4937771;29;20276;-47
2021/07/06 03:37:40;;;;;;;2.53;2.33;;;15.80;99.90;;;;;;4937772;29;20218;-45
2021/07/06 03:40:11;;;;;;;2.50;2.22;;;15.80;99.90;;;;;;4937560;29;20260;-48
2021/07/06 03:42:40;;;;;;;4.95;2.85;;;15.80;99.90;;;;;;4937638;29;20382;-50
2021/07/06 03:45:11;;;;;;;2.40;2.17;;;15.80;99.90;;;;;;4937672;29;20731;-49
2021/07/06 03:47:39;;;;;;;3.88;2.38;;;15.80;99.90;;;;;;4937697;29;20262;-47
2021/07/06 03:50:10;;;;;;;3.70;2.92;;;15.80;99.90;;;;;;4937237;29;20207;-47
2021/07/06 03:52:38;;;;;;;3.53;2.30;;;15.90;99.90;;;;;;4937356;29;20216;-45
2021/07/06 03:55:07;;;;;;;4.40;3.97;;;15.90;99.90;;;;;;4937102;29;20244;-48
2021/07/06 03:57:36;;;;;;;2.53;2.30;;;15.90;99.90;;;;;;4937166;29;20306;-50
2021/07/06 04:00:07;;;;;;;7.88;3.13;;;15.90;99.90;;;;;;4937073;29;20246;-46
2021/07/06 04:02:37;;;;;;;5.65;2.50;;;15.90;99.90;;;;;;4936906;29;20653;-46
2021/07/06 04:05:06;;;;;;;2.70;2.50;;;15.90;99.90;;;;;;4936909;29;20239;-48
2021/07/06 04:07:35;;;;;;;3.60;2.25;;;16.00;99.90;;;;;;4936814;29;20296;-49
2021/07/06 04:10:06;;;;;;;3.20;2.78;;;16.00;99.90;;;;;;4936647;29;20309;-46
2021/07/06 04:12:34;;;;;;;4.20;2.83;;;16.10;99.90;;;;;;4936530;29;20208;-49
2021/07/06 04:15:02;;;;;;;2.63;2.28;;;16.20;99.90;;;;;;4936255;29;20303;-48
2021/07/06 04:17:30;;;;;;;9.35;3.30;;;16.30;99.90;;;;;;4936048;29;20256;-48
2021/07/06 04:19:59;;;;;;;3.00;2.70;;;16.40;99.90;;;;;;4936127;29;20307;-50
2021/07/06 04:22:27;;;;;;;12.35;2.75;;;16.50;99.90;;;;;;4936048;29;20250;-46
2021/07/06 04:24:55;;;;;;;4.38;2.42;;;16.70;99.90;;;;;;4936322;29;20236;-47
2021/07/06 04:27:23;;;;;;;3.25;2.38;;;16.90;99.90;;;;;;4936122;29;20731;-46
2021/07/06 04:29:51;;;;;;;6.35;2.95;;;17.00;99.90;;;;;;4936370;29;20596;-48
2021/07/06 04:32:19;;;;;;;2.88;2.28;;;17.10;99.90;;;;;;4936390;29;20238;-47
2021/07/06 04:34:49;;;;;;;5.45;2.90;;;17.20;99.90;;;;;;4936490;29;20689;-48
2021/07/06 04:37:18;;;;;;;3.70;2.15;;;17.30;99.90;;;;;;4936104;29;20267;-48
2021/07/06 04:39:46;;;;;;;4.05;2.25;;;17.30;99.90;;;;;;4936421;29;20258;-45
2021/07/06 04:42:16;;;;;;;2.45;2.25;;;17.40;99.90;;;;;;4936121;29;20577;-46
2021/07/06 04:44:44;;;;;;;4.13;2.78;;;17.50;99.90;;;;;;4936332;29;20271;-48
2021/07/06 04:47:12;;;;;;;9.50;3.13;;;17.60;99.90;;;;;;4936252;29;20315;-46
2021/07/06 04:49:40;;;;;;;2.90;2.60;;;17.60;99.90;;;;;;4935938;29;20302;-45
2021/07/06 04:52:08;;;;;;;5.78;3.15;;;17.60;99.90;;;;;;4936032;29;20236;-45
2021/07/06 04:54:37;;;;;;;8.27;3.38;;;17.70;99.90;;;;;;4936432;29;20548;-50
2021/07/06 04:57:06;;;;;;;4.65;3.28;;;17.70;99.90;;;;;;4936254;29;20673;-46
2021/07/06 04:59:34;;;;;;;7.03;2.70;;;17.80;99.90;;;;;;4936147;29;20568;-47
2021/07/06 05:02:02;;;;;;;12.57;2.83;;;17.80;99.90;;;;;;4935932;29;20653;-45
2021/07/06 05:04:30;;;;;;;3.20;2.40;;;17.90;99.90;;;;;;4935858;29;20239;-44
2021/07/06 05:06:58;;;;;;;3.17;2.17;;;18.00;99.90;;;;;;4935962;29;20215;-44
2021/07/06 05:09:26;;;;;;;5.03;1.83;;;18.10;99.90;;;;;;4935914;29;20212;-52
2021/07/06 05:11:55;;;;;;;3.92;2.03;;;18.20;99.90;;;;;;4935806;29;20300;-48
2021/07/06 05:14:23;;;;;;;2.15;1.95;;;18.40;99.90;;;;;;4935828;29;20603;-47
2021/07/06 05:16:51;;;;;;;2.58;1.60;;;18.50;99.90;;;;;;4935693;29;20232;-49
2021/07/06 05:19:19;;;;;;;3.05;1.67;;;18.60;99.90;;;;;;4935869;29;20306;-50
2021/07/06 05:21:47;;;;;;;5.38;1.60;;;18.70;99.90;;;;;;4935946;29;20295;-48
2021/07/06 05:24:15;;;;;;;3.70;2.00;;;18.80;99.90;;;;;;4935868;29;20222;-46
2021/07/06 05:26:43;;;;;;;8.40;2.38;;;18.90;99.90;;;;;;4935896;29;20315;-47
2021/07/06 05:29:12;;;;;;;6.13;2.00;;;18.90;99.90;;;;;;4935801;29;20218;-46
2021/07/06 05:31:41;;;;;;;4.93;2.55;;;19.00;99.90;;;;;;4935583;29;20275;-51
2021/07/06 05:34:09;;;;;;;5.15;1.92;;;19.10;99.90;;;;;;4935851;29;20240;-50
2021/07/06 05:36:37;;;;;;;34.13;5.90;;;19.30;99.90;;;;;;4935372;29;20224;-45
2021/07/06 05:39:07;;;;;;;5.20;2.30;;;19.40;99.90;;;;;;4935292;29;20247;-46
2021/07/06 05:41:35;;;;;;;5.95;2.15;;;19.40;99.90;;;;;;4940125;29;20680;-46
2021/07/06 05:44:03;;;;;;;3.97;1.63;;;19.60;99.90;;;;;;4943040;28;20295;-48
2021/07/06 05:46:32;;;;;;;11.27;2.65;;;19.70;99.90;;;;;;4935781;29;20297;-49
2021/07/06 05:49:00;;;;;;;5.20;1.95;;;19.80;99.90;;;;;;4935050;29;20346;-44
2021/07/06 05:51:28;;;;;;;11.65;2.38;;;19.90;99.90;;;;;;4935425;29;20689;-48
2021/07/06 05:53:56;;;;;;;6.70;1.85;;;19.90;99.90;;;;;;4935355;29;20295;-47
2021/07/06 05:56:24;;;;;;;4.05;1.70;;;20.00;99.90;;;;;;4934993;29;20278;-45
2021/07/06 05:58:52;;;;;;;7.22;1.70;;;20.00;99.90;;;;;;4935072;29;20588;-48
2021/07/06 06:01:20;;;;;;;11.35;2.30;;;20.10;99.90;;;;;;4934984;29;20311;-45
2021/07/06 06:03:49;;;;;;;18.27;2.95;;;20.20;99.90;;;;;;4934871;29;20271;-47
2021/07/06 06:06:17;;;;;;;8.32;2.92;;;20.40;99.90;;;;;;4934566;29;20656;-45
2021/07/06 06:08:45;;;;;;;3.25;1.50;;;20.50;99.90;;;;;;4934737;29;20212;-45
2021/07/06 06:11:13;;;;;;;1.77;1.50;;;20.70;99.90;;;;;;4934713;29;20303;-48
2021/07/06 06:13:41;;;;;;;2.45;1.63;;;20.80;99.90;;;;;;4935113;29;20575;-48
2021/07/06 06:16:09;;;;;;;3.45;1.63;;;21.00;99.90;;;;;;4935601;29;20222;-49
2021/07/06 06:18:37;;;;;;;4.95;1.75;;;21.10;99.90;;;;;;4934830;29;20645;-49
2021/07/06 06:21:07;;;;;;;5.30;1.63;;;21.20;99.90;;;;;;4937000;29;20236;-49
2021/07/06 06:23:35;;;;;;;1.92;1.38;;;21.30;99.90;;;;;;4937680;29;20215;-51
2021/07/06 06:26:03;;;;;;;2.53;1.48;;;21.30;99.90;;;;;;4937447;29;20402;-51
2021/07/06 06:28:31;;;;;;;43.17;4.90;;;21.40;99.90;;;;;;4934846;29;20218;-48
2021/07/06 06:31:00;;;;;;;184.00;18.08;;;21.50;99.90;;;;;;4934726;29;20306;-52
2021/07/06 06:33:27;;;;;;;4.32;1.70;;;21.50;99.90;;;;;;4934430;29;20303;-48
2021/07/06 06:35:55;;;;;;;6.15;1.83;;;21.60;99.90;;;;;;4934589;29;20295;-47
2021/07/06 06:38:25;;;;;;;2.45;1.30;;;21.70;99.90;;;;;;4934511;29;20554;-47
2021/07/06 06:40:53;;;;;;;8.85;2.08;;;21.70;99.90;;;;;;4934766;29;20306;-48
2021/07/06 06:43:25;;;;;;;3.55;1.45;;;21.70;99.90;;;;;;4934420;29;20754;-48
2021/07/06 06:45:53;;;;;;;3.55;1.67;;;21.80;99.90;;;;;;4934394;29;20293;-47
2021/07/06 06:48:21;;;;;;;34.80;3.92;;;21.90;99.90;;;;;;4934406;29;20240;-50
2021/07/06 06:50:48;;;;;;;19.80;3.45;;;22.10;99.90;;;;;;4934235;29;20295;-50
2021/07/06 06:53:16;;;;;;;3.05;1.25;;;22.20;99.90;;;;;;4934776;29;20216;-50
2021/07/06 06:55:46;;;;;;;3.60;1.33;;;22.30;99.90;;;;;;4934571;29;20616;-46
2021/07/06 06:58:14;;;;;;;3.53;1.48;;;22.50;99.90;;;;;;4934028;29;20270;-46
2021/07/06 07:00:41;;;;;;;2.70;1.10;;;22.60;99.90;;;;;;4934102;29;20252;-49
2021/07/06 07:03:10;;;;;;;3.88;1.15;;;22.80;99.90;;;;;;4937923;29;20239;-47
2021/07/06 07:05:38;;;;;;;2.47;1.17;;;23.00;99.90;;;;;;4937976;29;20215;-45
2021/07/06 07:08:06;;;;;;;3.55;1.15;;;23.10;99.90;;;;;;4937837;29;20232;-48
2021/07/06 07:10:35;;;;;;;16.05;2.55;;;23.20;99.90;;;;;;4937765;29;20595;-46
2021/07/06 07:13:04;;;;;;;1.48;1.20;;;23.30;99.90;;;;;;4937711;29;20291;-47
2021/07/06 07:15:32;;;;;;;1.05;1.02;;;23.50;99.90;;;;;;4937707;29;20263;-45
2021/07/06 07:18:00;;;;;;;2.17;1.58;;;23.60;99.90;;;;;;4937704;29;20268;-44
2021/07/06 07:20:28;;;;;;;3.78;1.08;;;23.60;99.90;;;;;;4937309;29;20577;-47
2021/07/06 07:22:56;;;;;;;3.08;1.33;;;23.70;99.90;;;;;;4937534;29;20208;-51
2021/07/06 07:25:25;;;;;;;1.38;1.02;;;23.70;99.90;;;;;;4937751;29;20262;-47
2021/07/06 07:27:53;;;;;;;3.78;1.35;;;23.80;99.90;;;;;;4937443;29;20290;-50
2021/07/06 07:30:23;;;;;;;3.22;1.10;;;23.80;99.90;;;;;;4937250;29;20699;-48
2021/07/06 07:32:51;;;;;;;3.30;1.48;;;23.90;99.90;;;;;;4937377;29;20708;-49
2021/07/06 07:35:20;;;;;;;1.20;1.10;;;23.90;99.90;;;;;;4937907;29;20212;-49
2021/07/06 07:37:48;;;;;;;3.88;1.35;;;23.90;99.70;;;;;;4937363;29;20313;-49
2021/07/06 07:40:18;;;;;;;5.38;1.33;;;24.10;99.70;;;;;;4937234;29;20700;-47
2021/07/06 07:42:48;;;;;;;1.65;1.13;;;24.10;99.50;;;;;;4937067;29;20660;-47
2021/07/06 07:45:18;;;;;;;3.63;1.40;;;24.20;99.50;;;;;;4938581;29;20302;-46
2021/07/06 07:47:47;;;;;;;1.00;0.88;;;24.30;99.40;;;;;;4937237;29;20327;-49
2021/07/06 07:50:15;;;;;;;2.85;1.33;;;24.40;99.40;;;;;;4937068;29;20212;-48
2021/07/06 07:52:43;;;;;;;1.25;1.13;;;24.50;99.30;;;;;;4937165;29;20247;-45
2021/07/06 07:55:12;;;;;;;4.82;1.63;;;24.60;99.20;;;;;;4937007;29;20208;-43
2021/07/06 07:57:40;;;;;;;3.13;1.50;;;24.70;99.10;;;;;;4937032;29;20238;-45
2021/07/06 08:00:09;;;;;;;5.20;1.42;;;24.80;99.10;;;;;;4936889;29;20651;-45
2021/07/06 08:02:46;;;;;;;3.00;1.13;;;24.90;99.00;;;;;;4936926;29;20303;-43
2021/07/06 08:05:16;;;;;;;6.28;1.10;;;25.00;98.80;;;;;;4936946;29;20227;-44
2021/07/06 08:07:44;;;;;;;13.20;2.17;;;25.10;98.70;;;;;;4936797;29;20204;-43
2021/07/06 08:10:12;;;;;;;5.82;1.20;;;25.10;98.50;;;;;;4936821;29;20315;-43
2021/07/06 08:12:40;;;;;;;22.65;2.72;;;25.20;98.30;;;;;;4936556;29;20230;-48
2021/07/06 08:15:12;;;;;;;1.00;0.90;;;25.30;98.20;;;;;;4936789;29;20213;-45
2021/07/06 08:17:40;;;;;;;4.18;1.27;;;25.40;98.00;;;;;;4936662;29;20323;-46
2021/07/06 08:20:12;;;;;;;1.20;1.10;;;25.50;97.80;;;;;;4936481;29;20239;-43
2021/07/06 08:22:40;;;;;;;3.75;1.10;;;25.60;97.60;;;;;;4936638;29;20739;-43
2021/07/06 08:25:09;;;;;;;1.65;1.23;;;25.60;97.50;;;;;;4936647;29;20242;-46
2021/07/06 08:27:37;;;;;;;2.67;1.00;;;25.60;97.30;;;;;;4936698;29;20251;-47
2021/07/06 08:30:07;;;;;;;3.78;1.20;;;25.70;97.30;;;;;;4936526;29;20224;-44
2021/07/06 08:32:35;;;;;;;1.63;1.13;;;25.70;97.00;;;;;;4936290;29;20235;-44
2021/07/06 08:35:06;;;;;;;1.90;1.25;;;25.70;96.80;;;;;;4935713;29;20609;-42
2021/07/06 08:37:35;;;;;;;2.17;0.98;;;25.80;96.70;;;;;;4936366;29;20212;-45
2021/07/06 08:40:04;;;;;;;1.10;0.82;;;25.90;96.40;;;;;;4936228;29;20640;-44
2021/07/06 08:42:32;;;;;;;2.40;1.13;;;26.00;96.20;;;;;;4936238;29;20216;-43
2021/07/06 08:45:01;;;;;;;1.27;0.90;;;26.10;96.10;;;;;;4936250;29;20719;-43
2021/07/06 08:47:30;;;;;;;2.88;1.13;;;26.10;95.90;;;;;;4935882;29;20727;-44
2021/07/06 08:50:02;;;;;;;2.55;0.88;;;26.20;95.60;;;;;;4936184;29;20299;-43
2021/07/06 08:52:31;;;;;;;2.90;1.30;;;26.20;95.60;;;;;;4936048;29;20307;-43
2021/07/06 08:55:00;;;;;;;6.15;1.35;;;26.20;95.40;;;;;;4935802;29;20307;-45
2021/07/06 08:57:28;;;;;;;2.60;0.90;;;26.30;95.30;;;;;;4935988;29;20248;-44
2021/07/06 08:59:56;;;;;;;1.23;0.90;;;26.40;95.10;;;;;;4935716;29;20235;-44
2021/07/06 09:02:24;;;;;;;2.67;1.20;;;26.50;95.10;;;;;;4935880;29;20263;-44
2021/07/06 09:04:54;;;;;;;1.10;1.00;;;26.50;94.80;;;;;;4935566;29;20712;-44
2021/07/06 09:07:23;;;;;;;2.20;1.10;;;26.60;94.60;;;;;;4935423;29;20219;-44
2021/07/06 09:09:51;;;;;;;1.10;0.90;;;26.60;94.50;;;;;;4935450;29;20300;-44
2021/07/06 09:12:33;;;;;;;2.60;1.05;;;26.60;94.30;;;;;;4935081;29;20235;-45
2021/07/06 09:15:19;;;;;;;2.22;1.10;;;26.60;94.20;;;;;;4935617;29;20212;-46
2021/07/06 09:18:07;;;;;;;3.20;0.93;;;26.70;93.80;;;;;;4935381;29;20216;-45
2021/07/06 09:20:37;;;;;;;4.80;1.25;;;26.80;93.70;;;;;;4935041;29;20653;-44
2021/07/06 09:23:23;;;;;;;3.85;1.00;;;26.80;93.60;;;;;;4935551;29;20275;-44
2021/07/06 09:26:05;;;;;;;6.18;1.55;;;26.90;93.40;;;;;;4935243;29;20240;-44
2021/07/06 09:28:36;;;;;;;1.38;0.90;;;27.00;93.10;;;;;;4935462;29;20266;-44
2021/07/06 09:31:32;;;;;;;14.90;2.10;;;27.00;93.10;;;;;;4934924;29;20348;-44
2021/07/06 09:34:03;;;;;;;1.10;1.00;;;27.20;92.70;;;;;;4935092;29;20212;-45
2021/07/06 09:36:43;;;;;;;4.50;1.35;;;27.30;92.60;;;;;;4935246;29;20611;-45
2021/07/06 09:39:21;;;;;;;4.00;1.35;;;27.30;92.50;;;;;;4934964;29;20762;-44
2021/07/06 09:42:00;;;;;;;1.80;1.10;;;27.20;92.20;;;;;;4935292;29;20215;-44
2021/07/06 09:44:32;;;;;;;3.67;1.15;;;27.30;92.00;;;;;;4935002;29;20212;-45
2021/07/06 09:47:03;;;;;;;13.40;1.75;;;27.30;92.00;;;;;;4934934;29;20236;-44
2021/07/06 09:49:35;;;;;;;34.35;4.28;;;27.40;91.80;;;;;;4935083;29;20640;-46
2021/07/06 09:52:14;;;;;;;1.60;1.15;;;27.40;91.70;;;;;;4935285;29;20341;-47
2021/07/06 09:54:45;;;;;;;5.30;1.35;;;27.40;91.70;;;;;;4935102;29;20247;-45
2021/07/06 09:57:21;;;;;;;2.22;1.50;;;27.50;91.70;;;;;;4934900;29;20218;-44
2021/07/06 10:00:14;;;;;;;1.83;1.20;;;27.60;91.60;;;;;;4934850;29;20319;-44
2021/07/06 10:02:44;;;;;;;2.17;1.05;;;27.80;91.40;;;;;;4935100;29;20290;-46
2021/07/06 10:05:17;;;;;;;4.28;1.58;;;27.80;90.90;;;;;;4934898;29;20575;-46
2021/07/06 10:07:45;;;;;;;2.65;1.48;;;27.90;90.80;;;;;;4934602;29;20290;-45
2021/07/06 10:10:15;;;;;;;2.17;0.90;;;27.90;90.70;;;;;;4934804;29;20300;-45
2021/07/06 10:12:44;;;;;;;3.00;1.10;;;27.90;90.50;;;;;;4934475;29;20216;-46
2021/07/06 10:15:19;;;;;;;2.75;1.20;;;28.00;90.40;;;;;;4934665;29;20208;-46
2021/07/06 10:17:49;;;;;;;1.63;1.23;;;28.00;90.40;;;;;;4934892;29;20303;-45
2021/07/06 10:20:21;;;;;;;3.83;1.50;;;28.00;90.00;;;;;;4934516;29;20236;-46
2021/07/06 10:22:50;;;;;;;1.55;1.15;;;28.10;90.10;;;;;;4934707;29;20212;-46
2021/07/06 10:25:23;;;;;;;3.08;1.30;;;28.10;89.70;;;;;;4934653;29;20212;-47
2021/07/06 10:27:55;;;;;;;2.35;0.90;;;28.20;89.40;;;;;;4934698;29;20239;-48
2021/07/06 10:30:30;;;;;;;1.48;1.35;;;28.20;88.90;;;;;;4934556;29;20672;-45
2021/07/06 10:32:59;;;;;;;1.55;1.20;;;28.30;88.60;;;;;;4934602;29;20647;-45
2021/07/06 10:35:47;;;;;;;2.22;1.10;;;28.30;88.80;;;;;;4935855;29;20727;-44
2021/07/06 10:38:44;;;;;;;2.47;0.70;;;28.20;88.50;;;;;;4938662;29;20743;-45
2021/07/06 10:41:16;;;;;;;2.15;1.42;;;28.10;88.90;;;;;;4938340;29;20625;-44
2021/07/06 10:43:53;;;;;;;249.93;24.45;;;28.00;89.10;;;;;;4938104;29;20342;-44
2021/07/06 10:46:45;;;;;;;2.65;1.23;;;28.00;89.10;;;;;;4938588;29;20257;-44
2021/07/06 10:49:16;;;;;;;5.00;1.60;;;28.00;89.10;;;;;;4937781;29;20231;-47
2021/07/06 10:51:54;;;;;;;2.55;2.10;;;28.10;89.50;;;;;;4937614;29;20239;-45
2021/07/06 10:54:27;;;;;;;1.25;1.13;;;28.30;89.20;;;;;;4937990;29;20303;-45
2021/07/06 10:56:56;;;;;;;1.98;1.33;;;28.60;88.60;;;;;;4938078;29;20299;-44
2021/07/06 10:59:26;;;;;;;5.35;1.30;;;28.70;88.20;;;;;;4937896;29;20667;-45
2021/07/06 11:02:01;;;;;;;3.17;0.90;;;28.90;87.90;;;;;;4938147;29;20311;-44
2021/07/06 11:05:07;;;;;;;5.10;1.35;;;28.90;87.30;;;;;;4937968;29;20707;-49
2021/07/06 11:07:55;;;;;;;2.38;1.20;;;29.10;86.90;;;;;;4938256;29;20311;-46
2021/07/06 11:10:38;;;;;;;0.80;0.80;;;29.10;85.80;;;;;;4937763;29;20289;-45
2021/07/06 11:13:17;;;;;;;3.30;2.25;;;29.20;85.00;;;;;;4937587;29;20239;-47
2021/07/06 11:15:45;;;;;;;0.90;0.90;;;29.20;83.70;;;;;;4938009;29;20212;-46
2021/07/06 11:18:15;;;;;;;1.20;1.10;;;29.30;82.90;;;;;;4937650;29;20303;-47
2021/07/06 11:20:48;;;;;;;3.25;1.35;;;29.40;81.60;;;;;;4937657;29;20284;-46
2021/07/06 11:23:21;;;;;;;3.50;1.35;;;29.20;81.40;;;;;;4937698;29;20295;-51
2021/07/06 11:25:50;;;;;;;21.05;3.60;;;29.20;81.40;;;;;;4937578;29;20431;-50
2021/07/06 11:28:25;;;;;;;1.25;1.15;;;29.20;81.10;;;;;;4937758;29;20218;-49
2021/07/06 11:30:55;;;;;;;1.23;1.10;;;29.30;80.60;;;;;;4937453;29;20581;-48
2021/07/06 11:33:26;;;;;;;1.40;1.30;;;29.30;80.30;;;;;;4937548;29;20212;-44
2021/07/06 11:35:56;;;;;;;10.88;2.05;;;29.40;79.10;;;;;;4937708;29;20311;-48
2021/07/06 11:38:25;;;;;;;60.00;6.72;;;29.50;78.90;;;;;;4937278;29;20238;-49
2021/07/06 11:40:55;;;;;;;1.17;0.90;;;29.50;78.70;;;;;;4937457;29;20319;-50
2021/07/06 11:43:24;;;;;;;1.92;1.10;;;29.50;78.50;;;;;;4937205;29;20706;-48
2021/07/06 11:45:54;;;;;;;13.52;2.38;;;29.60;78.30;;;;;;4937218;29;20288;-49
2021/07/06 11:48:25;;;;;;;7.32;2.10;;;29.60;78.40;;;;;;4936565;29;20244;-47
2021/07/06 11:50:55;;;;;;;5.13;1.45;;;29.60;78.50;;;;;;4937244;29;20222;-45
2021/07/06 11:53:27;;;;;;;2.70;1.00;;;29.70;78.00;;;;;;4937240;29;20314;-48
2021/07/06 11:55:56;;;;;;;1.60;0.80;;;29.70;77.40;;;;;;4937109;29;20303;-48
2021/07/06 11:58:26;;;;;;;1.83;1.10;;;29.70;77.50;;;;;;4937102;29;20212;-48
2021/07/06 12:00:56;;;;;;;2.60;0.90;;;29.60;77.70;;;;;;4936965;29;20234;-47
2021/07/06 12:03:27;;;;;;;3.17;1.50;;;29.50;77.60;;;;;;4936720;29;20208;-45
2021/07/06 12:05:57;;;;;;;3.30;1.33;;;29.60;77.30;;;;;;4937072;29;20625;-46
2021/07/06 12:08:27;;;;;;;1.40;1.20;;;29.50;77.30;;;;;;4937092;29;20212;-46
2021/07/06 12:11:00;;;;;;;2.20;0.90;;;29.50;77.00;;;;;;4936750;29;20415;-46
2021/07/06 12:13:29;;;;;;;1.75;1.10;;;29.40;76.90;;;;;;4936674;29;20306;-46
2021/07/06 12:16:02;;;;;;;2.75;1.10;;;29.20;77.20;;;;;;4937049;29;20219;-48
2021/07/06 12:18:33;;;;;;;1.55;1.00;;;29.10;77.50;;;;;;4936865;29;20299;-47
2021/07/06 12:21:05;;;;;;;2.22;1.05;;;29.00;77.40;;;;;;4936821;29;20335;-46
2021/07/06 12:23:33;;;;;;;5.47;1.00;;;29.10;77.30;;;;;;4936742;29;20577;-45
2021/07/06 12:26:04;;;;;;;1.70;1.35;;;29.20;77.20;;;;;;4936641;29;20616;-49
2021/07/06 12:28:33;;;;;;;2.13;1.23;;;29.20;76.90;;;;;;4936830;29;20298;-46
2021/07/06 12:31:14;;;;;;;1.73;0.88;;;29.20;76.80;;;;;;4936836;29;20222;-46
2021/07/06 12:33:44;;;;;;;1.80;0.88;;;29.30;76.10;;;;;;4936473;29;20668;-46
2021/07/06 12:36:13;;;;;;;1.33;1.00;;;29.40;75.90;;;;;;4936601;29;20698;-46
2021/07/06 12:38:41;;;;;;;3.63;1.10;;;29.60;75.60;;;;;;4936339;29;20251;-47
2021/07/06 12:41:19;;;;;;;1.33;1.23;;;29.70;75.20;;;;;;4936459;29;20271;-45
2021/07/06 12:43:57;;;;;;;2.72;1.10;;;29.80;75.10;;;;;;4936298;29;20212;-49
2021/07/06 12:46:26;;;;;;;1.42;1.20;;;29.80;73.90;;;;;;4936443;29;20554;-46
2021/07/06 12:48:59;;;;;;;2.17;1.10;;;30.00;73.70;;;;;;4936367;29;20326;-50
2021/07/06 12:51:27;;;;;;;1.50;0.88;;;30.10;72.80;;;;;;4936403;29;20212;-48
2021/07/06 12:54:03;;;;;;;1.83;0.98;;;30.20;72.40;;;;;;4936315;29;20303;-50
2021/07/06 12:56:33;;;;;;;2.63;0.85;;;30.40;72.00;;;;;;4935649;29;20208;-51
2021/07/06 12:59:24;;;;;;;1.13;0.80;;;30.60;71.30;;;;;;4934767;29;20226;-47
2021/07/06 13:01:53;;;;;;;6.78;1.50;;;30.80;70.60;;;;;;4935947;29;20267;-51